sensor_id;sensor_type;location;lat;lon;timestamp;temperature;humidity
3919;DHT22;1974;48.670;8.994;2023-07-13T00:01:44;19.60;99.90
3919;DHT22;1974;48.670;8.994;2023-07-13T00:04:14;19.60;99.90
3919;DHT22;1974;48.670;8.994;2023-07-13T00:06:41;19.50;99.90
3919;DHT22;1974;48.670;8.994;2023-07-13T00:09:10;19.50;99.90
3919;DHT22;1974;48.670;8.994;2023-07-13T00:11:37;19.40;99.90
3919;DHT22;1974;48.670;8.994;2023-07-13T00:14:04;19.40;99.90
3919;DHT22;1974;48.670;8.994;2023-07-13T00:16:32;19.40;99.90
3919;DHT22;1974;48.670;8.994;2023-07-13T00:18:59;19.30;99.90
3919;DHT22;1974;48.670;8.994;2023-07-13T00:21:28;19.30;99.90
3919;DHT22;1974;48.670;8.994;2023-07-13T00:23:55;19.30;99.90
3919;DHT22;1974;48.670;8.994;2023-07-13T00:26:21;19.20;99.90
3919;DHT22;1974;48.670;8.994;2023-07-13T00:28:48;19.20;99.90
3919;DHT22;1974;48.670;8.994;2023-07-13T00:31:15;19.20;99.90
3919;DHT22;1974;48.670;8.994;2023-07-13T00:33:42;19.20;99.90
3919;DHT22;1974;48.670;8.994;2023-07-13T00:36:09;19.20;99.90
3919;DHT22;1974;48.670;8.994;2023-07-13T00:38:38;19.10;99.90
3919;DHT22;1974;48.670;8.994;2023-07-13T00:41:05;19.00;99.90
3919;DHT22;1974;48.670;8.994;2023-07-13T00:43:31;19.00;99.90
3919;DHT22;1974;48.670;8.994;2023-07-13T00:46:22;18.90;99.90
3919;DHT22;1974;48.670;8.994;2023-07-13T00:48:50;19.00;99.90
3919;DHT22;1974;48.670;8.994;2023-07-13T00:51:22;18.90;99.90
3919;DHT22;1974;48.670;8.994;2023-07-13T00:53:53;18.90;99.90
3919;DHT22;1974;48.670;8.994;2023-07-13T00:56:20;18.90;99.90
3919;DHT22;1974;48.670;8.994;2023-07-13T00:58:47;18.80;99.90
3919;DHT22;1974;48.670;8.994;2023-07-13T01:01:15;18.80;99.90
3919;DHT22;1974;48.670;8.994;2023-07-13T01:03:42;18.80;99.90
3919;DHT22;1974;48.670;8.994;2023-07-13T01:06:08;18.80;99.90
3919;DHT22;1974;48.670;8.994;2023-07-13T01:08:35;18.80;99.90
3919;DHT22;1974;48.670;8.994;2023-07-13T01:11:03;18.80;99.90
3919;DHT22;1974;48.670;8.994;2023-07-13T01:13:30;18.90;99.90
3919;DHT22;1974;48.670;8.994;2023-07-13T01:15:58;18.90;99.90
3919;DHT22;1974;48.670;8.994;2023-07-13T01:18:29;18.90;99.90
3919;DHT22;1974;48.670;8.994;2023-07-13T01:20:58;19.00;99.90
3919;DHT22;1974;48.670;8.994;2023-07-13T01:23:26;19.00;99.90
3919;DHT22;1974;48.670;8.994;2023-07-13T01:25:54;19.00;99.90
3919;DHT22;1974;48.670;8.994;2023-07-13T01:28:22;19.00;99.90
3919;DHT22;1974;48.670;8.994;2023-07-13T01:30:53;19.00;99.90
3919;DHT22;1974;48.670;8.994;2023-07-13T01:33:20;19.00;99.90
3919;DHT22;1974;48.670;8.994;2023-07-13T01:35:47;18.90;99.90
3919;DHT22;1974;48.670;8.994;2023-07-13T01:38:17;18.90;99.90
3919;DHT22;1974;48.670;8.994;2023-07-13T01:40:44;18.80;99.90
3919;DHT22;1974;48.670;8.994;2023-07-13T01:43:12;18.80;99.90
3919;DHT22;1974;48.670;8.994;2023-07-13T01:45:39;18.70;99.90
3919;DHT22;1974;48.670;8.994;2023-07-13T01:48:05;18.70;99.90
3919;DHT22;1974;48.670;8.994;2023-07-13T01:50:33;18.60;99.90
3919;DHT22;1974;48.670;8.994;2023-07-13T01:53:00;18.60;99.90
3919;DHT22;1974;48.670;8.994;2023-07-13T01:55:29;18.50;99.90
3919;DHT22;1974;48.670;8.994;2023-07-13T01:57:56;18.50;99.90
3919;DHT22;1974;48.670;8.994;2023-07-13T02:00:23;18.40;99.90
3919;DHT22;1974;48.670;8.994;2023-07-13T02:02:50;18.40;99.90
3919;DHT22;1974;48.670;8.994;2023-07-13T02:05:17;18.40;99.90
3919;DHT22;1974;48.670;8.994;2023-07-13T02:07:44;18.40;99.90
3919;DHT22;1974;48.670;8.994;2023-07-13T02:10:12;18.30;99.90
3919;DHT22;1974;48.670;8.994;2023-07-13T02:12:40;18.30;99.90
3919;DHT22;1974;48.670;8.994;2023-07-13T02:15:08;18.30;99.90
3919;DHT22;1974;48.670;8.994;2023-07-13T02:17:36;18.20;99.90
3919;DHT22;1974;48.670;8.994;2023-07-13T02:20:04;18.20;99.90
3919;DHT22;1974;48.670;8.994;2023-07-13T02:22:31;18.20;99.90
3919;DHT22;1974;48.670;8.994;2023-07-13T02:24:58;18.10;99.90
3919;DHT22;1974;48.670;8.994;2023-07-13T02:27:24;18.10;99.90
3919;DHT22;1974;48.670;8.994;2023-07-13T02:29:53;18.10;99.90
3919;DHT22;1974;48.670;8.994;2023-07-13T02:32:19;18.10;99.90
3919;DHT22;1974;48.670;8.994;2023-07-13T02:34:46;18.00;99.90
3919;DHT22;1974;48.670;8.994;2023-07-13T02:37:13;18.00;99.90
3919;DHT22;1974;48.670;8.994;2023-07-13T02:39:40;18.00;99.90
3919;DHT22;1974;48.670;8.994;2023-07-13T02:42:06;17.90;99.90
3919;DHT22;1974;48.670;8.994;2023-07-13T02:44:33;17.90;99.90
3919;DHT22;1974;48.670;8.994;2023-07-13T02:47:01;17.90;99.90
3919;DHT22;1974;48.670;8.994;2023-07-13T02:49:28;17.90;99.90
3919;DHT22;1974;48.670;8.994;2023-07-13T02:51:55;17.80;99.90
3919;DHT22;1974;48.670;8.994;2023-07-13T02:54:21;17.90;99.90
3919;DHT22;1974;48.670;8.994;2023-07-13T02:56:48;17.80;99.90
3919;DHT22;1974;48.670;8.994;2023-07-13T02:59:15;17.80;99.90
3919;DHT22;1974;48.670;8.994;2023-07-13T03:01:42;17.80;99.90
3919;DHT22;1974;48.670;8.994;2023-07-13T03:04:10;17.70;99.90
3919;DHT22;1974;48.670;8.994;2023-07-13T03:06:37;17.80;99.90
3919;DHT22;1974;48.670;8.994;2023-07-13T03:09:04;17.80;99.90
3919;DHT22;1974;48.670;8.994;2023-07-13T03:11:31;17.80;99.90
3919;DHT22;1974;48.670;8.994;2023-07-13T03:13:58;17.80;99.90
3919;DHT22;1974;48.670;8.994;2023-07-13T03:16:24;17.80;99.90
3919;DHT22;1974;48.670;8.994;2023-07-13T03:18:51;17.80;99.90
3919;DHT22;1974;48.670;8.994;2023-07-13T03:21:19;17.80;99.90
3919;DHT22;1974;48.670;8.994;2023-07-13T03:23:47;17.70;99.90
3919;DHT22;1974;48.670;8.994;2023-07-13T03:26:16;17.70;99.90
3919;DHT22;1974;48.670;8.994;2023-07-13T03:28:44;17.80;99.90
3919;DHT22;1974;48.670;8.994;2023-07-13T03:31:13;17.80;99.90
3919;DHT22;1974;48.670;8.994;2023-07-13T03:33:40;17.80;99.90
3919;DHT22;1974;48.670;8.994;2023-07-13T03:36:12;17.70;99.90
3919;DHT22;1974;48.670;8.994;2023-07-13T03:38:41;17.70;99.90
3919;DHT22;1974;48.670;8.994;2023-07-13T03:41:07;17.70;99.90
3919;DHT22;1974;48.670;8.994;2023-07-13T03:43:34;17.80;99.90
3919;DHT22;1974;48.670;8.994;2023-07-13T03:46:01;17.80;99.90
3919;DHT22;1974;48.670;8.994;2023-07-13T03:48:27;17.80;99.90
3919;DHT22;1974;48.670;8.994;2023-07-13T03:50:54;17.80;99.90
3919;DHT22;1974;48.670;8.994;2023-07-13T03:53:21;17.80;99.90
3919;DHT22;1974;48.670;8.994;2023-07-13T03:55:49;17.80;99.90
3919;DHT22;1974;48.670;8.994;2023-07-13T03:58:28;17.80;99.90
3919;DHT22;1974;48.670;8.994;2023-07-13T04:00:55;17.80;99.90
3919;DHT22;1974;48.670;8.994;2023-07-13T04:03:22;17.80;99.90
3919;DHT22;1974;48.670;8.994;2023-07-13T04:05:49;17.90;99.90
3919;DHT22;1974;48.670;8.994;2023-07-13T04:08:16;17.80;99.90
3919;DHT22;1974;48.670;8.994;2023-07-13T04:10:43;17.90;99.90
3919;DHT22;1974;48.670;8.994;2023-07-13T04:13:11;17.90;99.90
3919;DHT22;1974;48.670;8.994;2023-07-13T04:15:39;17.90;99.90
3919;DHT22;1974;48.670;8.994;2023-07-13T04:18:06;18.00;99.90
3919;DHT22;1974;48.670;8.994;2023-07-13T04:20:32;18.00;99.90
3919;DHT22;1974;48.670;8.994;2023-07-13T04:22:59;18.00;99.90
3919;DHT22;1974;48.670;8.994;2023-07-13T04:25:26;18.00;99.90
3919;DHT22;1974;48.670;8.994;2023-07-13T04:27:53;18.00;99.90
3919;DHT22;1974;48.670;8.994;2023-07-13T04:30:22;17.90;99.90
3919;DHT22;1974;48.670;8.994;2023-07-13T04:32:50;17.90;99.90
3919;DHT22;1974;48.670;8.994;2023-07-13T04:35:18;17.90;99.90
3919;DHT22;1974;48.670;8.994;2023-07-13T04:37:46;17.80;99.90
3919;DHT22;1974;48.670;8.994;2023-07-13T04:40:13;17.80;99.90
3919;DHT22;1974;48.670;8.994;2023-07-13T04:42:40;17.80;99.90
3919;DHT22;1974;48.670;8.994;2023-07-13T04:45:07;17.80;99.90
3919;DHT22;1974;48.670;8.994;2023-07-13T04:47:36;17.80;99.90
3919;DHT22;1974;48.670;8.994;2023-07-13T04:50:03;17.70;99.90
3919;DHT22;1974;48.670;8.994;2023-07-13T04:52:30;17.70;99.90
3919;DHT22;1974;48.670;8.994;2023-07-13T04:54:58;17.70;99.90
3919;DHT22;1974;48.670;8.994;2023-07-13T04:57:25;17.70;99.90
3919;DHT22;1974;48.670;8.994;2023-07-13T04:59:52;17.70;99.90
3919;DHT22;1974;48.670;8.994;2023-07-13T05:02:20;17.70;99.90
3919;DHT22;1974;48.670;8.994;2023-07-13T05:04:48;17.70;99.90
3919;DHT22;1974;48.670;8.994;2023-07-13T05:07:15;17.80;99.90
3919;DHT22;1974;48.670;8.994;2023-07-13T05:09:42;17.80;99.90
3919;DHT22;1974;48.670;8.994;2023-07-13T05:12:09;17.90;99.90
3919;DHT22;1974;48.670;8.994;2023-07-13T05:14:36;18.00;99.90
3919;DHT22;1974;48.670;8.994;2023-07-13T05:17:03;18.10;99.90
3919;DHT22;1974;48.670;8.994;2023-07-13T05:19:30;18.30;99.90
3919;DHT22;1974;48.670;8.994;2023-07-13T05:21:58;18.30;99.90
3919;DHT22;1974;48.670;8.994;2023-07-13T05:24:25;18.40;99.90
3919;DHT22;1974;48.670;8.994;2023-07-13T05:26:52;18.50;99.90
3919;DHT22;1974;48.670;8.994;2023-07-13T05:29:19;18.60;99.90
3919;DHT22;1974;48.670;8.994;2023-07-13T05:31:46;18.70;99.90
3919;DHT22;1974;48.670;8.994;2023-07-13T05:34:13;18.70;99.90
3919;DHT22;1974;48.670;8.994;2023-07-13T05:36:40;18.70;99.90
3919;DHT22;1974;48.670;8.994;2023-07-13T05:39:08;18.80;99.90
3919;DHT22;1974;48.670;8.994;2023-07-13T05:41:37;18.70;99.90
3919;DHT22;1974;48.670;8.994;2023-07-13T05:44:04;18.70;99.90
3919;DHT22;1974;48.670;8.994;2023-07-13T05:46:30;18.80;99.90
3919;DHT22;1974;48.670;8.994;2023-07-13T05:48:57;18.80;99.90
3919;DHT22;1974;48.670;8.994;2023-07-13T05:51:24;18.80;99.90
3919;DHT22;1974;48.670;8.994;2023-07-13T05:53:50;18.90;99.90
3919;DHT22;1974;48.670;8.994;2023-07-13T05:56:18;18.90;99.90
3919;DHT22;1974;48.670;8.994;2023-07-13T05:58:45;18.90;99.90
3919;DHT22;1974;48.670;8.994;2023-07-13T06:01:13;19.00;99.90
3919;DHT22;1974;48.670;8.994;2023-07-13T06:03:40;19.00;99.90
3919;DHT22;1974;48.670;8.994;2023-07-13T06:06:09;19.10;99.90
3919;DHT22;1974;48.670;8.994;2023-07-13T06:08:36;19.20;99.90
3919;DHT22;1974;48.670;8.994;2023-07-13T06:11:05;19.30;99.90
3919;DHT22;1974;48.670;8.994;2023-07-13T06:13:33;19.40;99.90
3919;DHT22;1974;48.670;8.994;2023-07-13T06:16:00;19.50;99.90
3919;DHT22;1974;48.670;8.994;2023-07-13T06:18:29;19.60;99.90
3919;DHT22;1974;48.670;8.994;2023-07-13T06:20:56;19.70;99.90
3919;DHT22;1974;48.670;8.994;2023-07-13T06:23:23;19.80;99.90
3919;DHT22;1974;48.670;8.994;2023-07-13T06:25:49;19.90;99.90
3919;DHT22;1974;48.670;8.994;2023-07-13T06:28:16;20.10;99.90
3919;DHT22;1974;48.670;8.994;2023-07-13T06:30:44;20.30;99.90
3919;DHT22;1974;48.670;8.994;2023-07-13T06:33:11;20.40;99.90
3919;DHT22;1974;48.670;8.994;2023-07-13T06:35:38;20.60;99.90
3919;DHT22;1974;48.670;8.994;2023-07-13T06:38:04;20.70;99.90
3919;DHT22;1974;48.670;8.994;2023-07-13T06:40:31;20.90;99.90
3919;DHT22;1974;48.670;8.994;2023-07-13T06:42:58;21.00;99.90
3919;DHT22;1974;48.670;8.994;2023-07-13T06:45:25;21.10;99.90
3919;DHT22;1974;48.670;8.994;2023-07-13T06:47:53;21.20;99.90
3919;DHT22;1974;48.670;8.994;2023-07-13T06:50:19;21.30;99.90
3919;DHT22;1974;48.670;8.994;2023-07-13T06:52:46;21.20;99.90
3919;DHT22;1974;48.670;8.994;2023-07-13T06:55:13;21.40;99.90
3919;DHT22;1974;48.670;8.994;2023-07-13T06:57:39;21.40;99.90
3919;DHT22;1974;48.670;8.994;2023-07-13T07:00:07;21.30;99.90
3919;DHT22;1974;48.670;8.994;2023-07-13T07:02:35;21.50;99.90
3919;DHT22;1974;48.670;8.994;2023-07-13T07:05:03;21.70;99.90
3919;DHT22;1974;48.670;8.994;2023-07-13T07:07:30;21.90;99.90
3919;DHT22;1974;48.670;8.994;2023-07-13T07:09:57;22.00;99.90
3919;DHT22;1974;48.670;8.994;2023-07-13T07:12:24;22.00;99.90
3919;DHT22;1974;48.670;8.994;2023-07-13T07:14:50;22.10;99.90
3919;DHT22;1974;48.670;8.994;2023-07-13T07:17:17;22.20;99.90
3919;DHT22;1974;48.670;8.994;2023-07-13T07:19:44;22.30;99.90
3919;DHT22;1974;48.670;8.994;2023-07-13T07:22:12;22.40;99.90
3919;DHT22;1974;48.670;8.994;2023-07-13T07:24:38;22.50;99.90
3919;DHT22;1974;48.670;8.994;2023-07-13T07:27:05;22.50;99.90
3919;DHT22;1974;48.670;8.994;2023-07-13T07:29:32;22.60;99.90
3919;DHT22;1974;48.670;8.994;2023-07-13T07:31:59;22.50;99.90
3919;DHT22;1974;48.670;8.994;2023-07-13T07:34:26;22.70;99.90
3919;DHT22;1974;48.670;8.994;2023-07-13T07:36:53;22.70;98.70
3919;DHT22;1974;48.670;8.994;2023-07-13T07:39:21;22.80;98.80
3919;DHT22;1974;48.670;8.994;2023-07-13T07:41:48;23.00;99.20
3919;DHT22;1974;48.670;8.994;2023-07-13T07:44:14;22.90;99.10
3919;DHT22;1974;48.670;8.994;2023-07-13T07:46:41;23.00;99.30
3919;DHT22;1974;48.670;8.994;2023-07-13T07:49:08;23.20;99.30
3919;DHT22;1974;48.670;8.994;2023-07-13T07:51:34;23.40;98.90
3919;DHT22;1974;48.670;8.994;2023-07-13T07:54:01;23.50;98.70
3919;DHT22;1974;48.670;8.994;2023-07-13T07:56:29;23.60;98.80
3919;DHT22;1974;48.670;8.994;2023-07-13T07:58:57;23.70;96.40
3919;DHT22;1974;48.670;8.994;2023-07-13T08:01:24;23.70;96.90
3919;DHT22;1974;48.670;8.994;2023-07-13T08:03:51;23.90;96.80
3919;DHT22;1974;48.670;8.994;2023-07-13T08:06:18;24.00;96.40
3919;DHT22;1974;48.670;8.994;2023-07-13T08:08:45;24.00;96.50
3919;DHT22;1974;48.670;8.994;2023-07-13T08:11:12;24.10;95.00
3919;DHT22;1974;48.670;8.994;2023-07-13T08:13:40;24.10;94.30
3919;DHT22;1974;48.670;8.994;2023-07-13T08:16:07;24.30;95.30
3919;DHT22;1974;48.670;8.994;2023-07-13T08:18:34;24.50;95.00
3919;DHT22;1974;48.670;8.994;2023-07-13T08:21:03;24.70;95.30
3919;DHT22;1974;48.670;8.994;2023-07-13T08:23:30;24.90;94.70
3919;DHT22;1974;48.670;8.994;2023-07-13T08:25:57;25.20;93.10
3919;DHT22;1974;48.670;8.994;2023-07-13T08:28:27;25.40;93.10
3919;DHT22;1974;48.670;8.994;2023-07-13T08:30:59;25.60;91.90
3919;DHT22;1974;48.670;8.994;2023-07-13T08:33:26;25.60;92.20
3919;DHT22;1974;48.670;8.994;2023-07-13T08:35:53;25.60;91.80
3919;DHT22;1974;48.670;8.994;2023-07-13T08:38:20;25.80;90.90
3919;DHT22;1974;48.670;8.994;2023-07-13T08:40:50;25.90;90.80
3919;DHT22;1974;48.670;8.994;2023-07-13T08:43:22;25.80;88.20
3919;DHT22;1974;48.670;8.994;2023-07-13T08:45:57;26.00;88.90
3919;DHT22;1974;48.670;8.994;2023-07-13T08:48:28;26.20;90.50
3919;DHT22;1974;48.670;8.994;2023-07-13T08:50:57;26.20;88.00
3919;DHT22;1974;48.670;8.994;2023-07-13T08:53:30;26.10;87.80
3919;DHT22;1974;48.670;8.994;2023-07-13T08:55:59;25.90;87.60
3919;DHT22;1974;48.670;8.994;2023-07-13T08:58:27;26.00;88.70
3919;DHT22;1974;48.670;8.994;2023-07-13T09:01:02;26.00;87.20
3919;DHT22;1974;48.670;8.994;2023-07-13T09:03:38;26.00;84.50
3919;DHT22;1974;48.670;8.994;2023-07-13T09:06:08;26.00;86.90
3919;DHT22;1974;48.670;8.994;2023-07-13T09:08:46;25.80;85.80
3919;DHT22;1974;48.670;8.994;2023-07-13T09:11:29;25.70;85.00
3919;DHT22;1974;48.670;8.994;2023-07-13T09:14:02;25.70;86.00
3919;DHT22;1974;48.670;8.994;2023-07-13T09:16:33;26.10;84.90
3919;DHT22;1974;48.670;8.994;2023-07-13T09:19:05;26.20;83.20
3919;DHT22;1974;48.670;8.994;2023-07-13T09:21:34;26.10;82.70
3919;DHT22;1974;48.670;8.994;2023-07-13T09:24:22;26.20;82.20
3919;DHT22;1974;48.670;8.994;2023-07-13T09:26:54;26.20;83.80
3919;DHT22;1974;48.670;8.994;2023-07-13T09:29:26;26.00;83.50
3919;DHT22;1974;48.670;8.994;2023-07-13T09:31:58;25.70;84.40
3919;DHT22;1974;48.670;8.994;2023-07-13T09:34:28;25.50;84.30
3919;DHT22;1974;48.670;8.994;2023-07-13T09:36:57;25.70;86.00
3919;DHT22;1974;48.670;8.994;2023-07-13T09:39:26;26.00;86.20
3919;DHT22;1974;48.670;8.994;2023-07-13T09:41:59;26.30;82.20
3919;DHT22;1974;48.670;8.994;2023-07-13T09:44:31;26.30;83.70
3919;DHT22;1974;48.670;8.994;2023-07-13T09:47:03;26.00;82.10
3919;DHT22;1974;48.670;8.994;2023-07-13T09:49:33;25.90;85.10
3919;DHT22;1974;48.670;8.994;2023-07-13T09:52:03;25.90;86.40
3919;DHT22;1974;48.670;8.994;2023-07-13T09:54:34;25.90;84.70
3919;DHT22;1974;48.670;8.994;2023-07-13T09:57:03;25.60;84.70
3919;DHT22;1974;48.670;8.994;2023-07-13T09:59:32;25.40;85.60
3919;DHT22;1974;48.670;8.994;2023-07-13T10:02:00;25.20;86.50
3919;DHT22;1974;48.670;8.994;2023-07-13T10:04:31;25.10;86.50
3919;DHT22;1974;48.670;8.994;2023-07-13T10:07:06;24.80;85.50
3919;DHT22;1974;48.670;8.994;2023-07-13T10:09:33;24.80;86.40
3919;DHT22;1974;48.670;8.994;2023-07-13T10:11:59;24.90;85.70
3919;DHT22;1974;48.670;8.994;2023-07-13T10:14:29;25.00;86.30
3919;DHT22;1974;48.670;8.994;2023-07-13T10:16:59;25.20;86.40
3919;DHT22;1974;48.670;8.994;2023-07-13T10:19:32;25.30;84.30
3919;DHT22;1974;48.670;8.994;2023-07-13T10:22:02;25.50;83.80
3919;DHT22;1974;48.670;8.994;2023-07-13T10:24:37;25.60;83.30
3919;DHT22;1974;48.670;8.994;2023-07-13T10:27:16;25.60;82.80
3919;DHT22;1974;48.670;8.994;2023-07-13T10:29:47;25.80;83.40
3919;DHT22;1974;48.670;8.994;2023-07-13T10:32:15;25.80;82.70
3919;DHT22;1974;48.670;8.994;2023-07-13T10:34:46;25.80;84.60
3919;DHT22;1974;48.670;8.994;2023-07-13T10:37:25;25.90;85.00
3919;DHT22;1974;48.670;8.994;2023-07-13T10:39:55;26.00;81.50
3919;DHT22;1974;48.670;8.994;2023-07-13T10:42:28;26.00;81.90
3919;DHT22;1974;48.670;8.994;2023-07-13T10:44:55;26.00;82.40
3919;DHT22;1974;48.670;8.994;2023-07-13T10:47:22;26.10;81.30
3919;DHT22;1974;48.670;8.994;2023-07-13T10:49:54;26.10;80.60
3919;DHT22;1974;48.670;8.994;2023-07-13T10:52:43;26.10;78.30
3919;DHT22;1974;48.670;8.994;2023-07-13T10:55:36;26.10;80.10
3919;DHT22;1974;48.670;8.994;2023-07-13T10:58:13;26.50;81.80
3919;DHT22;1974;48.670;8.994;2023-07-13T11:00:47;26.70;77.10
3919;DHT22;1974;48.670;8.994;2023-07-13T11:03:17;26.70;75.70
3919;DHT22;1974;48.670;8.994;2023-07-13T11:05:48;26.70;76.40
3919;DHT22;1974;48.670;8.994;2023-07-13T11:08:19;26.70;74.70
3919;DHT22;1974;48.670;8.994;2023-07-13T11:10:51;26.40;75.40
3919;DHT22;1974;48.670;8.994;2023-07-13T11:16:37;25.80;78.00
3919;DHT22;1974;48.670;8.994;2023-07-13T11:19:41;25.60;76.20
3919;DHT22;1974;48.670;8.994;2023-07-13T11:22:15;25.40;77.10
3919;DHT22;1974;48.670;8.994;2023-07-13T11:25:20;25.50;77.30
3919;DHT22;1974;48.670;8.994;2023-07-13T11:27:50;25.60;77.80
3919;DHT22;1974;48.670;8.994;2023-07-13T11:30:31;25.60;79.00
3919;DHT22;1974;48.670;8.994;2023-07-13T11:33:13;25.60;78.00
3919;DHT22;1974;48.670;8.994;2023-07-13T11:35:53;25.50;81.30
3919;DHT22;1974;48.670;8.994;2023-07-13T11:38:32;25.40;81.00
3919;DHT22;1974;48.670;8.994;2023-07-13T11:41:03;25.50;78.90
3919;DHT22;1974;48.670;8.994;2023-07-13T11:43:30;25.60;77.90
3919;DHT22;1974;48.670;8.994;2023-07-13T11:46:12;25.70;76.10
3919;DHT22;1974;48.670;8.994;2023-07-13T11:48:39;25.70;76.00
3919;DHT22;1974;48.670;8.994;2023-07-13T11:51:13;25.60;76.20
3919;DHT22;1974;48.670;8.994;2023-07-13T11:53:45;25.50;75.70
3919;DHT22;1974;48.670;8.994;2023-07-13T11:56:12;25.50;77.30
3919;DHT22;1974;48.670;8.994;2023-07-13T11:58:40;25.30;77.60
3919;DHT22;1974;48.670;8.994;2023-07-13T12:01:17;25.40;77.80
3919;DHT22;1974;48.670;8.994;2023-07-13T12:03:45;25.60;72.30
3919;DHT22;1974;48.670;8.994;2023-07-13T12:06:24;25.70;74.70
3919;DHT22;1974;48.670;8.994;2023-07-13T12:08:56;26.00;73.00
3919;DHT22;1974;48.670;8.994;2023-07-13T12:11:22;26.10;71.90
3919;DHT22;1974;48.670;8.994;2023-07-13T12:13:49;26.20;70.60
3919;DHT22;1974;48.670;8.994;2023-07-13T12:16:24;26.00;74.70
3919;DHT22;1974;48.670;8.994;2023-07-13T12:18:53;26.10;74.30
3919;DHT22;1974;48.670;8.994;2023-07-13T12:21:23;26.30;76.10
3919;DHT22;1974;48.670;8.994;2023-07-13T12:23:53;26.30;74.80
3919;DHT22;1974;48.670;8.994;2023-07-13T12:26:20;26.30;73.70
3919;DHT22;1974;48.670;8.994;2023-07-13T12:28:49;26.30;73.80
3919;DHT22;1974;48.670;8.994;2023-07-13T12:31:34;26.30;74.10
3919;DHT22;1974;48.670;8.994;2023-07-13T12:34:03;26.30;75.70
3919;DHT22;1974;48.670;8.994;2023-07-13T12:36:35;26.20;74.90
3919;DHT22;1974;48.670;8.994;2023-07-13T12:39:13;26.20;73.70
3919;DHT22;1974;48.670;8.994;2023-07-13T12:41:41;26.10;73.00
3919;DHT22;1974;48.670;8.994;2023-07-13T12:44:11;26.10;74.20
3919;DHT22;1974;48.670;8.994;2023-07-13T12:46:38;26.10;74.00
3919;DHT22;1974;48.670;8.994;2023-07-13T12:49:06;26.00;74.70
3919;DHT22;1974;48.670;8.994;2023-07-13T12:51:33;26.10;75.20
3919;DHT22;1974;48.670;8.994;2023-07-13T12:54:13;26.10;74.10
3919;DHT22;1974;48.670;8.994;2023-07-13T12:56:41;26.10;74.80
3919;DHT22;1974;48.670;8.994;2023-07-13T12:59:16;26.00;75.30
3919;DHT22;1974;48.670;8.994;2023-07-13T13:01:43;25.90;74.00
3919;DHT22;1974;48.670;8.994;2023-07-13T13:04:10;25.70;75.20
3919;DHT22;1974;48.670;8.994;2023-07-13T13:06:38;25.50;77.40
3919;DHT22;1974;48.670;8.994;2023-07-13T13:09:12;25.40;76.60
3919;DHT22;1974;48.670;8.994;2023-07-13T13:11:39;25.40;77.30
3919;DHT22;1974;48.670;8.994;2023-07-13T13:14:06;25.40;73.00
3919;DHT22;1974;48.670;8.994;2023-07-13T13:16:35;25.50;74.80
3919;DHT22;1974;48.670;8.994;2023-07-13T13:19:12;25.50;72.50
3919;DHT22;1974;48.670;8.994;2023-07-13T13:21:39;25.50;70.80
3919;DHT22;1974;48.670;8.994;2023-07-13T13:24:11;25.50;70.60
3919;DHT22;1974;48.670;8.994;2023-07-13T13:26:39;25.40;72.10
3919;DHT22;1974;48.670;8.994;2023-07-13T13:29:11;25.50;68.90
3919;DHT22;1974;48.670;8.994;2023-07-13T13:31:39;25.40;68.30
3919;DHT22;1974;48.670;8.994;2023-07-13T13:34:09;25.50;69.20
3919;DHT22;1974;48.670;8.994;2023-07-13T13:36:36;25.60;71.90
3919;DHT22;1974;48.670;8.994;2023-07-13T13:39:05;25.70;70.20
3919;DHT22;1974;48.670;8.994;2023-07-13T13:41:33;25.70;68.70
3919;DHT22;1974;48.670;8.994;2023-07-13T13:44:00;25.70;69.70
3919;DHT22;1974;48.670;8.994;2023-07-13T13:46:26;25.80;69.60
3919;DHT22;1974;48.670;8.994;2023-07-13T13:48:55;25.80;69.30
3919;DHT22;1974;48.670;8.994;2023-07-13T13:51:23;25.60;68.20
3919;DHT22;1974;48.670;8.994;2023-07-13T13:53:50;25.50;69.50
3919;DHT22;1974;48.670;8.994;2023-07-13T13:56:19;25.40;69.70
3919;DHT22;1974;48.670;8.994;2023-07-13T13:58:47;25.30;68.30
3919;DHT22;1974;48.670;8.994;2023-07-13T14:01:17;25.20;68.10
3919;DHT22;1974;48.670;8.994;2023-07-13T14:03:44;25.20;70.50
3919;DHT22;1974;48.670;8.994;2023-07-13T14:06:15;25.20;70.30
3919;DHT22;1974;48.670;8.994;2023-07-13T14:08:42;25.20;72.10
3919;DHT22;1974;48.670;8.994;2023-07-13T14:11:11;25.10;70.60
3919;DHT22;1974;48.670;8.994;2023-07-13T14:13:42;25.00;69.50
3919;DHT22;1974;48.670;8.994;2023-07-13T14:16:15;24.80;70.00
3919;DHT22;1974;48.670;8.994;2023-07-13T14:18:43;24.80;71.40
3919;DHT22;1974;48.670;8.994;2023-07-13T14:21:13;24.70;72.80
3919;DHT22;1974;48.670;8.994;2023-07-13T14:23:40;24.70;73.30
3919;DHT22;1974;48.670;8.994;2023-07-13T14:26:11;24.70;72.00
3919;DHT22;1974;48.670;8.994;2023-07-13T14:28:40;24.70;73.50
3919;DHT22;1974;48.670;8.994;2023-07-13T14:31:08;24.70;73.60
3919;DHT22;1974;48.670;8.994;2023-07-13T14:33:36;24.70;73.30
3919;DHT22;1974;48.670;8.994;2023-07-13T14:36:15;24.80;74.00
3919;DHT22;1974;48.670;8.994;2023-07-13T14:38:44;24.90;74.20
3919;DHT22;1974;48.670;8.994;2023-07-13T14:41:11;25.00;74.30
3919;DHT22;1974;48.670;8.994;2023-07-13T14:43:37;25.00;73.80
3919;DHT22;1974;48.670;8.994;2023-07-13T14:46:04;25.00;73.80
3919;DHT22;1974;48.670;8.994;2023-07-13T14:48:31;25.00;75.50
3919;DHT22;1974;48.670;8.994;2023-07-13T14:50:59;25.00;74.30
3919;DHT22;1974;48.670;8.994;2023-07-13T14:53:27;25.10;75.90
3919;DHT22;1974;48.670;8.994;2023-07-13T14:55:54;25.20;76.50
3919;DHT22;1974;48.670;8.994;2023-07-13T14:58:20;25.10;74.80
3919;DHT22;1974;48.670;8.994;2023-07-13T15:00:47;25.10;75.40
3919;DHT22;1974;48.670;8.994;2023-07-13T15:03:19;25.10;74.30
3919;DHT22;1974;48.670;8.994;2023-07-13T15:05:48;25.10;76.30
3919;DHT22;1974;48.670;8.994;2023-07-13T15:08:17;25.00;75.80
3919;DHT22;1974;48.670;8.994;2023-07-13T15:10:43;24.90;76.30
3919;DHT22;1974;48.670;8.994;2023-07-13T15:13:16;24.90;77.20
3919;DHT22;1974;48.670;8.994;2023-07-13T15:15:46;24.90;77.30
3919;DHT22;1974;48.670;8.994;2023-07-13T15:18:15;24.90;78.60
3919;DHT22;1974;48.670;8.994;2023-07-13T15:20:44;24.90;77.20
3919;DHT22;1974;48.670;8.994;2023-07-13T15:23:12;24.90;76.10
3919;DHT22;1974;48.670;8.994;2023-07-13T15:25:41;25.00;76.70
3919;DHT22;1974;48.670;8.994;2023-07-13T15:28:09;25.00;75.80
3919;DHT22;1974;48.670;8.994;2023-07-13T15:30:40;25.00;75.80
3919;DHT22;1974;48.670;8.994;2023-07-13T15:33:12;24.90;76.40
3919;DHT22;1974;48.670;8.994;2023-07-13T15:35:39;25.00;76.80
3919;DHT22;1974;48.670;8.994;2023-07-13T15:38:13;24.90;75.50
3919;DHT22;1974;48.670;8.994;2023-07-13T15:40:42;24.90;74.40
3919;DHT22;1974;48.670;8.994;2023-07-13T15:43:10;24.80;74.70
3919;DHT22;1974;48.670;8.994;2023-07-13T15:45:38;24.80;74.70
3919;DHT22;1974;48.670;8.994;2023-07-13T15:48:17;24.80;73.80
3919;DHT22;1974;48.670;8.994;2023-07-13T15:50:46;24.70;73.30
3919;DHT22;1974;48.670;8.994;2023-07-13T15:53:16;24.60;74.10
3919;DHT22;1974;48.670;8.994;2023-07-13T15:55:46;24.40;74.10
3919;DHT22;1974;48.670;8.994;2023-07-13T15:58:13;24.40;76.20
3919;DHT22;1974;48.670;8.994;2023-07-13T16:00:41;24.40;75.30
3919;DHT22;1974;48.670;8.994;2023-07-13T16:03:08;24.40;75.60
3919;DHT22;1974;48.670;8.994;2023-07-13T16:05:35;24.30;75.60
3919;DHT22;1974;48.670;8.994;2023-07-13T16:08:03;24.30;76.40
3919;DHT22;1974;48.670;8.994;2023-07-13T16:10:32;24.20;78.30
3919;DHT22;1974;48.670;8.994;2023-07-13T16:13:02;24.10;78.30
3919;DHT22;1974;48.670;8.994;2023-07-13T16:15:30;24.10;76.10
3919;DHT22;1974;48.670;8.994;2023-07-13T16:17:57;24.20;75.40